sensor_id;sensor_type;location;lat;lon;timestamp;P1;durP1;ratioP1;P2;durP2;ratioP2
19221;SDS011;9745;50.828;4.378;2023-03-03T00:00:25;32.83;;;17.13;;
19221;SDS011;9745;50.828;4.378;2023-03-03T00:02:51;32.53;;;17.27;;
19221;SDS011;9745;50.828;4.378;2023-03-03T00:05:17;30.97;;;17.07;;
19221;SDS011;9745;50.828;4.378;2023-03-03T00:07:43;33.07;;;17.27;;
19221;SDS011;9745;50.828;4.378;2023-03-03T00:10:10;33.57;;;18.07;;
19221;SDS011;9745;50.828;4.378;2023-03-03T00:12:36;30.93;;;15.80;;
19221;SDS011;9745;50.828;4.378;2023-03-03T00:15:18;32.20;;;16.70;;
19221;SDS011;9745;50.828;4.378;2023-03-03T00:17:44;32.10;;;16.07;;
19221;SDS011;9745;50.828;4.378;2023-03-03T00:20:45;31.47;;;16.47;;
19221;SDS011;9745;50.828;4.378;2023-03-03T00:25:48;31.43;;;16.07;;
19221;SDS011;9745;50.828;4.378;2023-03-03T00:28:17;34.37;;;16.60;;
19221;SDS011;9745;50.828;4.378;2023-03-03T00:30:45;31.63;;;16.43;;
19221;SDS011;9745;50.828;4.378;2023-03-03T00:33:14;32.13;;;15.97;;
19221;SDS011;9745;50.828;4.378;2023-03-03T00:35:44;36.50;;;16.57;;
19221;SDS011;9745;50.828;4.378;2023-03-03T00:38:11;29.60;;;16.20;;
19221;SDS011;9745;50.828;4.378;2023-03-03T00:40:39;35.73;;;17.90;;
19221;SDS011;9745;50.828;4.378;2023-03-03T00:43:34;30.10;;;15.97;;
19221;SDS011;9745;50.828;4.378;2023-03-03T00:46:00;34.50;;;15.57;;
19221;SDS011;9745;50.828;4.378;2023-03-03T00:48:31;33.70;;;16.63;;
19221;SDS011;9745;50.828;4.378;2023-03-03T00:51:48;35.37;;;15.97;;
19221;SDS011;9745;50.828;4.378;2023-03-03T00:53:55;31.57;;;15.67;;
19221;SDS011;9745;50.828;4.378;2023-03-03T00:56:21;31.97;;;16.00;;
19221;SDS011;9745;50.828;4.378;2023-03-03T00:58:47;31.47;;;16.00;;
19221;SDS011;9745;50.828;4.378;2023-03-03T01:01:14;35.30;;;17.17;;
19221;SDS011;9745;50.828;4.378;2023-03-03T01:03:40;31.07;;;16.30;;
19221;SDS011;9745;50.828;4.378;2023-03-03T01:06:06;33.73;;;16.10;;
19221;SDS011;9745;50.828;4.378;2023-03-03T01:08:32;31.47;;;16.17;;
19221;SDS011;9745;50.828;4.378;2023-03-03T01:10:59;34.80;;;16.60;;
19221;SDS011;9745;50.828;4.378;2023-03-03T01:13:33;32.30;;;16.47;;
19221;SDS011;9745;50.828;4.378;2023-03-03T01:16:00;28.47;;;16.23;;
19221;SDS011;9745;50.828;4.378;2023-03-03T01:18:27;31.80;;;16.53;;
19221;SDS011;9745;50.828;4.378;2023-03-03T01:20:53;31.43;;;16.77;;
19221;SDS011;9745;50.828;4.378;2023-03-03T01:23:19;31.27;;;17.97;;
19221;SDS011;9745;50.828;4.378;2023-03-03T01:25:45;29.40;;;15.97;;
19221;SDS011;9745;50.828;4.378;2023-03-03T01:28:11;30.53;;;15.70;;
19221;SDS011;9745;50.828;4.378;2023-03-03T01:30:37;36.43;;;17.30;;
19221;SDS011;9745;50.828;4.378;2023-03-03T01:33:03;32.33;;;16.53;;
19221;SDS011;9745;50.828;4.378;2023-03-03T01:35:29;37.77;;;17.90;;
19221;SDS011;9745;50.828;4.378;2023-03-03T01:37:55;31.07;;;16.57;;
19221;SDS011;9745;50.828;4.378;2023-03-03T01:40:22;32.63;;;16.20;;
19221;SDS011;9745;50.828;4.378;2023-03-03T01:42:49;34.93;;;17.67;;
19221;SDS011;9745;50.828;4.378;2023-03-03T01:45:17;35.10;;;17.10;;
19221;SDS011;9745;50.828;4.378;2023-03-03T01:47:48;35.17;;;17.30;;
19221;SDS011;9745;50.828;4.378;2023-03-03T01:50:19;36.27;;;18.57;;
19221;SDS011;9745;50.828;4.378;2023-03-03T01:52:47;34.10;;;17.00;;
19221;SDS011;9745;50.828;4.378;2023-03-03T01:55:18;34.77;;;18.83;;
19221;SDS011;9745;50.828;4.378;2023-03-03T01:57:46;35.70;;;17.63;;
19221;SDS011;9745;50.828;4.378;2023-03-03T02:00:13;36.97;;;18.73;;
19221;SDS011;9745;50.828;4.378;2023-03-03T02:02:39;39.40;;;19.40;;
19221;SDS011;9745;50.828;4.378;2023-03-03T02:05:06;33.93;;;17.87;;
19221;SDS011;9745;50.828;4.378;2023-03-03T02:07:32;35.90;;;17.83;;
19221;SDS011;9745;50.828;4.378;2023-03-03T02:10:31;36.70;;;18.70;;
19221;SDS011;9745;50.828;4.378;2023-03-03T02:12:52;39.60;;;20.17;;
19221;SDS011;9745;50.828;4.378;2023-03-03T02:17:45;39.37;;;18.77;;
19221;SDS011;9745;50.828;4.378;2023-03-03T02:20:14;45.00;;;22.60;;
19221;SDS011;9745;50.828;4.378;2023-03-03T02:25:30;51.30;;;22.47;;
19221;SDS011;9745;50.828;4.378;2023-03-03T02:27:59;46.17;;;21.70;;
19221;SDS011;9745;50.828;4.378;2023-03-03T02:30:26;50.77;;;23.47;;
19221;SDS011;9745;50.828;4.378;2023-03-03T02:32:52;52.80;;;24.80;;
19221;SDS011;9745;50.828;4.378;2023-03-03T02:35:29;48.13;;;21.47;;
19221;SDS011;9745;50.828;4.378;2023-03-03T02:37:56;47.73;;;21.60;;
19221;SDS011;9745;50.828;4.378;2023-03-03T02:40:24;42.33;;;22.00;;
19221;SDS011;9745;50.828;4.378;2023-03-03T02:42:52;50.67;;;22.57;;
19221;SDS011;9745;50.828;4.378;2023-03-03T02:45:18;42.03;;;21.53;;
19221;SDS011;9745;50.828;4.378;2023-03-03T02:47:48;45.27;;;21.83;;
19221;SDS011;9745;50.828;4.378;2023-03-03T02:50:14;44.83;;;22.57;;
19221;SDS011;9745;50.828;4.378;2023-03-03T02:52:40;45.80;;;21.87;;
19221;SDS011;9745;50.828;4.378;2023-03-03T02:55:07;46.53;;;21.33;;
19221;SDS011;9745;50.828;4.378;2023-03-03T02:57:33;54.23;;;22.93;;
19221;SDS011;9745;50.828;4.378;2023-03-03T02:59:59;51.27;;;23.33;;
19221;SDS011;9745;50.828;4.378;2023-03-03T03:02:25;53.57;;;22.97;;
19221;SDS011;9745;50.828;4.378;2023-03-03T03:04:51;50.43;;;23.70;;
19221;SDS011;9745;50.828;4.378;2023-03-03T03:07:17;53.70;;;22.53;;
19221;SDS011;9745;50.828;4.378;2023-03-03T03:09:43;51.07;;;23.43;;
19221;SDS011;9745;50.828;4.378;2023-03-03T03:12:09;52.53;;;23.63;;
19221;SDS011;9745;50.828;4.378;2023-03-03T03:14:36;47.60;;;22.60;;
19221;SDS011;9745;50.828;4.378;2023-03-03T03:17:02;48.00;;;21.70;;
19221;SDS011;9745;50.828;4.378;2023-03-03T03:19:28;45.70;;;22.13;;
19221;SDS011;9745;50.828;4.378;2023-03-03T03:21:55;44.27;;;21.43;;
19221;SDS011;9745;50.828;4.378;2023-03-03T03:24:21;45.30;;;21.70;;
19221;SDS011;9745;50.828;4.378;2023-03-03T03:26:47;44.57;;;22.00;;
19221;SDS011;9745;50.828;4.378;2023-03-03T03:29:13;47.70;;;21.20;;
19221;SDS011;9745;50.828;4.378;2023-03-03T03:31:39;46.63;;;22.07;;
19221;SDS011;9745;50.828;4.378;2023-03-03T03:34:07;43.07;;;21.77;;
19221;SDS011;9745;50.828;4.378;2023-03-03T03:36:33;45.97;;;21.60;;
19221;SDS011;9745;50.828;4.378;2023-03-03T03:38:59;37.90;;;19.27;;
19221;SDS011;9745;50.828;4.378;2023-03-03T03:41:26;39.23;;;19.87;;
19221;SDS011;9745;50.828;4.378;2023-03-03T03:43:52;43.77;;;20.50;;
19221;SDS011;9745;50.828;4.378;2023-03-03T03:46:19;44.93;;;20.47;;
19221;SDS011;9745;50.828;4.378;2023-03-03T03:48:45;41.37;;;20.20;;
19221;SDS011;9745;50.828;4.378;2023-03-03T03:51:11;47.13;;;22.03;;
19221;SDS011;9745;50.828;4.378;2023-03-03T03:53:37;46.47;;;22.17;;
19221;SDS011;9745;50.828;4.378;2023-03-03T03:56:03;45.13;;;20.70;;
19221;SDS011;9745;50.828;4.378;2023-03-03T03:58:29;46.20;;;21.60;;
19221;SDS011;9745;50.828;4.378;2023-03-03T04:01:00;48.77;;;22.70;;
19221;SDS011;9745;50.828;4.378;2023-03-03T04:03:26;43.93;;;21.20;;
19221;SDS011;9745;50.828;4.378;2023-03-03T04:05:52;46.43;;;23.33;;
19221;SDS011;9745;50.828;4.378;2023-03-03T04:08:19;48.27;;;22.50;;
19221;SDS011;9745;50.828;4.378;2023-03-03T04:10:45;53.63;;;22.97;;
19221;SDS011;9745;50.828;4.378;2023-03-03T04:13:11;51.10;;;23.83;;
19221;SDS011;9745;50.828;4.378;2023-03-03T04:15:37;53.17;;;23.57;;
19221;SDS011;9745;50.828;4.378;2023-03-03T04:18:03;53.77;;;23.77;;
19221;SDS011;9745;50.828;4.378;2023-03-03T04:20:29;47.63;;;22.67;;
19221;SDS011;9745;50.828;4.378;2023-03-03T04:22:55;44.33;;;22.50;;
19221;SDS011;9745;50.828;4.378;2023-03-03T04:25:22;51.57;;;23.33;;
19221;SDS011;9745;50.828;4.378;2023-03-03T04:27:48;47.73;;;22.43;;
19221;SDS011;9745;50.828;4.378;2023-03-03T04:30:15;46.30;;;21.80;;
19221;SDS011;9745;50.828;4.378;2023-03-03T04:32:41;43.03;;;21.60;;
19221;SDS011;9745;50.828;4.378;2023-03-03T04:35:07;48.37;;;23.80;;
19221;SDS011;9745;50.828;4.378;2023-03-03T04:37:34;42.60;;;21.37;;
19221;SDS011;9745;50.828;4.378;2023-03-03T04:40:00;40.93;;;19.97;;
19221;SDS011;9745;50.828;4.378;2023-03-03T04:42:26;36.77;;;18.37;;
19221;SDS011;9745;50.828;4.378;2023-03-03T04:44:52;42.13;;;19.87;;
19221;SDS011;9745;50.828;4.378;2023-03-03T04:47:18;41.90;;;20.50;;
19221;SDS011;9745;50.828;4.378;2023-03-03T04:49:44;38.23;;;20.03;;
19221;SDS011;9745;50.828;4.378;2023-03-03T04:52:10;43.60;;;20.63;;
19221;SDS011;9745;50.828;4.378;2023-03-03T04:54:36;38.73;;;18.67;;
19221;SDS011;9745;50.828;4.378;2023-03-03T04:57:02;48.00;;;20.50;;
19221;SDS011;9745;50.828;4.378;2023-03-03T04:59:28;45.73;;;21.10;;
19221;SDS011;9745;50.828;4.378;2023-03-03T05:01:55;46.50;;;21.50;;
19221;SDS011;9745;50.828;4.378;2023-03-03T05:04:21;43.37;;;20.70;;
19221;SDS011;9745;50.828;4.378;2023-03-03T05:06:47;51.43;;;23.83;;
19221;SDS011;9745;50.828;4.378;2023-03-03T05:09:13;43.93;;;21.47;;
19221;SDS011;9745;50.828;4.378;2023-03-03T05:11:39;52.90;;;23.07;;
19221;SDS011;9745;50.828;4.378;2023-03-03T05:14:05;47.90;;;22.03;;
19221;SDS011;9745;50.828;4.378;2023-03-03T05:16:32;51.17;;;22.93;;
19221;SDS011;9745;50.828;4.378;2023-03-03T05:18:58;52.33;;;22.90;;
19221;SDS011;9745;50.828;4.378;2023-03-03T05:21:24;54.23;;;23.57;;
19221;SDS011;9745;50.828;4.378;2023-03-03T05:23:50;51.10;;;22.10;;
19221;SDS011;9745;50.828;4.378;2023-03-03T05:26:16;53.87;;;24.77;;
19221;SDS011;9745;50.828;4.378;2023-03-03T05:28:42;50.63;;;22.23;;
19221;SDS011;9745;50.828;4.378;2023-03-03T05:31:08;47.30;;;21.90;;
19221;SDS011;9745;50.828;4.378;2023-03-03T05:33:34;52.53;;;22.13;;
19221;SDS011;9745;50.828;4.378;2023-03-03T05:36:00;40.27;;;19.47;;
19221;SDS011;9745;50.828;4.378;2023-03-03T05:38:26;45.33;;;20.33;;
19221;SDS011;9745;50.828;4.378;2023-03-03T05:40:52;48.30;;;22.07;;
19221;SDS011;9745;50.828;4.378;2023-03-03T05:43:19;43.57;;;20.30;;
19221;SDS011;9745;50.828;4.378;2023-03-03T05:45:45;45.63;;;20.53;;
19221;SDS011;9745;50.828;4.378;2023-03-03T05:48:11;47.67;;;21.17;;
19221;SDS011;9745;50.828;4.378;2023-03-03T05:50:37;42.80;;;20.63;;
19221;SDS011;9745;50.828;4.378;2023-03-03T05:53:04;48.13;;;22.20;;
19221;SDS011;9745;50.828;4.378;2023-03-03T05:55:30;39.07;;;19.03;;
19221;SDS011;9745;50.828;4.378;2023-03-03T05:57:56;43.23;;;20.77;;
19221;SDS011;9745;50.828;4.378;2023-03-03T06:00:22;41.93;;;20.47;;
19221;SDS011;9745;50.828;4.378;2023-03-03T06:02:48;45.47;;;21.17;;
19221;SDS011;9745;50.828;4.378;2023-03-03T06:05:14;41.57;;;20.57;;
19221;SDS011;9745;50.828;4.378;2023-03-03T06:07:40;48.27;;;21.63;;
19221;SDS011;9745;50.828;4.378;2023-03-03T06:10:06;41.97;;;19.67;;
19221;SDS011;9745;50.828;4.378;2023-03-03T06:12:32;37.97;;;18.17;;
19221;SDS011;9745;50.828;4.378;2023-03-03T06:14:58;44.90;;;20.07;;
19221;SDS011;9745;50.828;4.378;2023-03-03T06:17:24;41.37;;;20.50;;
19221;SDS011;9745;50.828;4.378;2023-03-03T06:19:50;41.17;;;20.60;;
19221;SDS011;9745;50.828;4.378;2023-03-03T06:22:16;38.53;;;19.63;;
19221;SDS011;9745;50.828;4.378;2023-03-03T06:24:42;39.10;;;19.93;;
19221;SDS011;9745;50.828;4.378;2023-03-03T06:27:08;47.17;;;21.30;;
19221;SDS011;9745;50.828;4.378;2023-03-03T06:29:34;38.47;;;20.37;;
19221;SDS011;9745;50.828;4.378;2023-03-03T06:32:00;37.40;;;18.13;;
19221;SDS011;9745;50.828;4.378;2023-03-03T06:34:26;39.17;;;20.37;;
19221;SDS011;9745;50.828;4.378;2023-03-03T06:36:52;40.90;;;19.83;;
19221;SDS011;9745;50.828;4.378;2023-03-03T06:39:18;41.03;;;19.40;;
19221;SDS011;9745;50.828;4.378;2023-03-03T06:41:44;37.50;;;19.20;;
19221;SDS011;9745;50.828;4.378;2023-03-03T06:44:10;40.97;;;19.77;;
19221;SDS011;9745;50.828;4.378;2023-03-03T06:46:36;35.70;;;17.50;;
19221;SDS011;9745;50.828;4.378;2023-03-03T06:49:02;36.13;;;18.53;;
19221;SDS011;9745;50.828;4.378;2023-03-03T06:53:55;35.47;;;17.20;;
19221;SDS011;9745;50.828;4.378;2023-03-03T06:56:24;40.93;;;18.90;;
19221;SDS011;9745;50.828;4.378;2023-03-03T06:58:57;42.30;;;19.53;;
19221;SDS011;9745;50.828;4.378;2023-03-03T07:01:27;35.53;;;18.97;;
19221;SDS011;9745;50.828;4.378;2023-03-03T07:03:55;36.80;;;19.37;;
19221;SDS011;9745;50.828;4.378;2023-03-03T07:06:22;35.37;;;18.93;;
19221;SDS011;9745;50.828;4.378;2023-03-03T07:08:48;38.30;;;18.33;;
19221;SDS011;9745;50.828;4.378;2023-03-03T07:11:16;37.03;;;18.27;;
19221;SDS011;9745;50.828;4.378;2023-03-03T07:13:45;38.80;;;18.90;;
19221;SDS011;9745;50.828;4.378;2023-03-03T07:16:12;40.53;;;19.63;;
19221;SDS011;9745;50.828;4.378;2023-03-03T07:21:27;37.90;;;18.73;;
19221;SDS011;9745;50.828;4.378;2023-03-03T07:23:56;36.23;;;18.30;;
19221;SDS011;9745;50.828;4.378;2023-03-03T07:26:27;37.03;;;17.37;;
19221;SDS011;9745;50.828;4.378;2023-03-03T07:29:28;32.07;;;16.53;;
19221;SDS011;9745;50.828;4.378;2023-03-03T07:31:47;32.93;;;16.57;;
19221;SDS011;9745;50.828;4.378;2023-03-03T07:34:20;36.60;;;17.70;;
19221;SDS011;9745;50.828;4.378;2023-03-03T07:36:47;36.83;;;17.60;;
19221;SDS011;9745;50.828;4.378;2023-03-03T07:39:25;32.07;;;17.07;;
19221;SDS011;9745;50.828;4.378;2023-03-03T07:41:59;38.93;;;18.57;;
19221;SDS011;9745;50.828;4.378;2023-03-03T07:44:28;40.00;;;18.53;;
19221;SDS011;9745;50.828;4.378;2023-03-03T07:46:56;36.63;;;19.90;;
19221;SDS011;9745;50.828;4.378;2023-03-03T07:51:54;37.50;;;18.83;;
19221;SDS011;9745;50.828;4.378;2023-03-03T07:54:28;37.20;;;19.63;;
19221;SDS011;9745;50.828;4.378;2023-03-03T07:56:56;38.73;;;19.37;;
19221;SDS011;9745;50.828;4.378;2023-03-03T07:59:23;42.60;;;19.67;;
19221;SDS011;9745;50.828;4.378;2023-03-03T08:01:54;46.83;;;19.90;;
19221;SDS011;9745;50.828;4.378;2023-03-03T08:06:55;42.47;;;19.17;;
19221;SDS011;9745;50.828;4.378;2023-03-03T08:14:36;39.17;;;19.43;;
19221;SDS011;9745;50.828;4.378;2023-03-03T08:17:45;46.37;;;19.53;;
19221;SDS011;9745;50.828;4.378;2023-03-03T08:19:52;37.00;;;18.13;;
19221;SDS011;9745;50.828;4.378;2023-03-03T08:22:34;42.17;;;18.57;;
19221;SDS011;9745;50.828;4.378;2023-03-03T08:25:00;39.23;;;18.47;;
19221;SDS011;9745;50.828;4.378;2023-03-03T08:27:26;38.37;;;17.23;;
19221;SDS011;9745;50.828;4.378;2023-03-03T08:29:52;35.97;;;17.63;;
19221;SDS011;9745;50.828;4.378;2023-03-03T08:32:18;34.47;;;16.33;;
19221;SDS011;9745;50.828;4.378;2023-03-03T08:34:44;34.77;;;16.67;;
19221;SDS011;9745;50.828;4.378;2023-03-03T08:37:10;35.07;;;17.27;;
19221;SDS011;9745;50.828;4.378;2023-03-03T08:39:36;37.20;;;17.00;;
19221;SDS011;9745;50.828;4.378;2023-03-03T08:42:02;34.57;;;16.47;;
19221;SDS011;9745;50.828;4.378;2023-03-03T08:44:28;34.57;;;15.27;;
19221;SDS011;9745;50.828;4.378;2023-03-03T08:46:54;29.87;;;14.60;;
19221;SDS011;9745;50.828;4.378;2023-03-03T08:49:20;32.57;;;14.77;;
19221;SDS011;9745;50.828;4.378;2023-03-03T08:51:46;28.53;;;14.13;;
19221;SDS011;9745;50.828;4.378;2023-03-03T08:54:12;28.73;;;15.27;;
19221;SDS011;9745;50.828;4.378;2023-03-03T08:56:38;34.80;;;15.33;;
19221;SDS011;9745;50.828;4.378;2023-03-03T08:59:04;28.53;;;14.80;;
19221;SDS011;9745;50.828;4.378;2023-03-03T09:01:30;31.63;;;13.63;;
19221;SDS011;9745;50.828;4.378;2023-03-03T09:03:57;29.03;;;14.67;;
19221;SDS011;9745;50.828;4.378;2023-03-03T09:06:23;28.13;;;14.17;;
19221;SDS011;9745;50.828;4.378;2023-03-03T09:08:49;34.07;;;15.90;;
19221;SDS011;9745;50.828;4.378;2023-03-03T09:11:18;33.87;;;16.57;;
19221;SDS011;9745;50.828;4.378;2023-03-03T09:13:46;39.87;;;17.43;;
19221;SDS011;9745;50.828;4.378;2023-03-03T09:16:17;31.03;;;16.33;;
19221;SDS011;9745;50.828;4.378;2023-03-03T09:18:45;34.80;;;16.90;;
19221;SDS011;9745;50.828;4.378;2023-03-03T09:21:15;31.37;;;15.83;;
19221;SDS011;9745;50.828;4.378;2023-03-03T09:23:42;35.37;;;16.73;;
19221;SDS011;9745;50.828;4.378;2023-03-03T09:28:45;33.63;;;16.00;;
19221;SDS011;9745;50.828;4.378;2023-03-03T09:31:53;28.40;;;13.33;;
19221;SDS011;9745;50.828;4.378;2023-03-03T09:34:00;31.90;;;15.63;;
19221;SDS011;9745;50.828;4.378;2023-03-03T09:36:27;32.87;;;16.27;;
19221;SDS011;9745;50.828;4.378;2023-03-03T09:38:55;31.03;;;14.77;;
19221;SDS011;9745;50.828;4.378;2023-03-03T09:41:34;29.13;;;15.00;;
19221;SDS011;9745;50.828;4.378;2023-03-03T09:46:55;28.23;;;14.27;;
19221;SDS011;9745;50.828;4.378;2023-03-03T09:49:33;27.23;;;13.63;;
19221;SDS011;9745;50.828;4.378;2023-03-03T09:52:06;32.07;;;14.37;;
19221;SDS011;9745;50.828;4.378;2023-03-03T09:57:13;31.63;;;15.10;;
19221;SDS011;9745;50.828;4.378;2023-03-03T09:59:46;32.20;;;14.23;;
19221;SDS011;9745;50.828;4.378;2023-03-03T10:07:36;29.07;;;13.90;;
19221;SDS011;9745;50.828;4.378;2023-03-03T10:25:57;35.57;;;14.30;;
19221;SDS011;9745;50.828;4.378;2023-03-03T10:28:50;30.20;;;14.53;;
19221;SDS011;9745;50.828;4.378;2023-03-03T10:39:10;34.10;;;15.03;;
19221;SDS011;9745;50.828;4.378;2023-03-03T10:46:53;29.07;;;13.27;;
19221;SDS011;9745;50.828;4.378;2023-03-03T10:49:34;28.43;;;13.93;;
19221;SDS011;9745;50.828;4.378;2023-03-03T10:52:25;30.73;;;13.77;;
19221;SDS011;9745;50.828;4.378;2023-03-03T10:55:03;32.00;;;14.67;;
19221;SDS011;9745;50.828;4.378;2023-03-03T11:05:34;29.00;;;13.67;;
19221;SDS011;9745;50.828;4.378;2023-03-03T11:13:17;31.50;;;13.90;;
19221;SDS011;9745;50.828;4.378;2023-03-03T11:15:59;30.77;;;14.00;;
19221;SDS011;9745;50.828;4.378;2023-03-03T11:18:32;26.63;;;13.17;;
19221;SDS011;9745;50.828;4.378;2023-03-03T11:21:12;33.37;;;14.53;;
19221;SDS011;9745;50.828;4.378;2023-03-03T11:23:44;29.20;;;14.17;;
19221;SDS011;9745;50.828;4.378;2023-03-03T11:26:15;28.70;;;12.23;;
19221;SDS011;9745;50.828;4.378;2023-03-03T11:31:34;26.87;;;13.20;;
19221;SDS011;9745;50.828;4.378;2023-03-03T11:36:48;26.80;;;14.27;;
19221;SDS011;9745;50.828;4.378;2023-03-03T11:39:15;30.60;;;14.17;;
19221;SDS011;9745;50.828;4.378;2023-03-03T11:41:53;33.70;;;15.50;;
19221;SDS011;9745;50.828;4.378;2023-03-03T11:44:30;28.83;;;13.13;;
19221;SDS011;9745;50.828;4.378;2023-03-03T11:47:16;30.03;;;14.97;;
19221;SDS011;9745;50.828;4.378;2023-03-03T11:52:37;31.20;;;14.00;;
19221;SDS011;9745;50.828;4.378;2023-03-03T11:55:16;28.37;;;12.80;;
19221;SDS011;9745;50.828;4.378;2023-03-03T11:57:52;32.23;;;14.33;;
19221;SDS011;9745;50.828;4.378;2023-03-03T12:00:28;26.33;;;12.80;;
19221;SDS011;9745;50.828;4.378;2023-03-03T12:05:52;26.77;;;13.23;;
19221;SDS011;9745;50.828;4.378;2023-03-03T12:08:37;24.97;;;12.13;;
19221;SDS011;9745;50.828;4.378;2023-03-03T12:16:03;22.93;;;11.47;;
19221;SDS011;9745;50.828;4.378;2023-03-03T12:18:37;27.60;;;13.13;;
19221;SDS011;9745;50.828;4.378;2023-03-03T12:23:51;38.97;;;20.73;;
19221;SDS011;9745;50.828;4.378;2023-03-03T12:26:31;30.00;;;15.80;;
19221;SDS011;9745;50.828;4.378;2023-03-03T12:34:47;28.80;;;13.33;;
19221;SDS011;9745;50.828;4.378;2023-03-03T12:37:19;28.77;;;12.60;;
19221;SDS011;9745;50.828;4.378;2023-03-03T12:40:02;30.40;;;14.87;;
19221;SDS011;9745;50.828;4.378;2023-03-03T12:42:41;22.33;;;11.80;;
19221;SDS011;9745;50.828;4.378;2023-03-03T12:47:53;26.77;;;13.07;;
19221;SDS011;9745;50.828;4.378;2023-03-03T12:53:08;24.40;;;12.13;;
19221;SDS011;9745;50.828;4.378;2023-03-03T12:55:48;24.33;;;12.43;;
19221;SDS011;9745;50.828;4.378;2023-03-03T12:58:30;26.03;;;13.00;;
19221;SDS011;9745;50.828;4.378;2023-03-03T13:03:53;23.63;;;12.43;;
19221;SDS011;9745;50.828;4.378;2023-03-03T13:06:26;26.83;;;12.73;;
19221;SDS011;9745;50.828;4.378;2023-03-03T13:09:10;26.07;;;12.60;;
19221;SDS011;9745;50.828;4.378;2023-03-03T13:14:34;24.03;;;11.87;;
19221;SDS011;9745;50.828;4.378;2023-03-03T13:17:14;29.73;;;13.07;;
19221;SDS011;9745;50.828;4.378;2023-03-03T13:19:45;27.17;;;12.57;;
19221;SDS011;9745;50.828;4.378;2023-03-03T13:22:12;25.53;;;11.63;;
19221;SDS011;9745;50.828;4.378;2023-03-03T13:27:08;24.83;;;11.70;;
19221;SDS011;9745;50.828;4.378;2023-03-03T13:29:38;23.10;;;11.37;;
19221;SDS011;9745;50.828;4.378;2023-03-03T13:32:11;28.07;;;12.23;;
19221;SDS011;9745;50.828;4.378;2023-03-03T13:34:42;24.37;;;12.80;;
19221;SDS011;9745;50.828;4.378;2023-03-03T13:37:19;26.63;;;12.23;;
19221;SDS011;9745;50.828;4.378;2023-03-03T13:44:46;27.83;;;12.13;;
19221;SDS011;9745;50.828;4.378;2023-03-03T13:55:31;21.70;;;11.43;;
19221;SDS011;9745;50.828;4.378;2023-03-03T13:57:59;22.37;;;12.23;;
19221;SDS011;9745;50.828;4.378;2023-03-03T14:00:30;21.83;;;10.50;;
19221;SDS011;9745;50.828;4.378;2023-03-03T14:03:02;23.10;;;11.77;;
19221;SDS011;9745;50.828;4.378;2023-03-03T14:10:34;21.07;;;10.57;;
19221;SDS011;9745;50.828;4.378;2023-03-03T14:15:29;18.17;;;9.67;;
19221;SDS011;9745;50.828;4.378;2023-03-03T14:21:19;24.17;;;11.10;;
19221;SDS011;9745;50.828;4.378;2023-03-03T14:26:27;21.30;;;10.93;;
19221;SDS011;9745;50.828;4.378;2023-03-03T14:29:03;21.73;;;9.67;;
19221;SDS011;9745;50.828;4.378;2023-03-03T14:32:19;17.40;;;9.37;;
19221;SDS011;9745;50.828;4.378;2023-03-03T14:37:41;18.97;;;9.03;;
19221;SDS011;9745;50.828;4.378;2023-03-03T14:40:26;19.90;;;9.90;;
19221;SDS011;9745;50.828;4.378;2023-03-03T14:43:22;19.70;;;8.50;;
19221;SDS011;9745;50.828;4.378;2023-03-03T14:45:54;17.57;;;9.00;;
19221;SDS011;9745;50.828;4.378;2023-03-03T14:50:50;19.47;;;9.37;;
19221;SDS011;9745;50.828;4.378;2023-03-03T14:55:44;18.10;;;9.00;;
19221;SDS011;9745;50.828;4.378;2023-03-03T15:01:34;14.03;;;7.90;;
19221;SDS011;9745;50.828;4.378;2023-03-03T15:03:45;19.60;;;8.60;;
19221;SDS011;9745;50.828;4.378;2023-03-03T15:06:12;20.33;;;8.80;;
19221;SDS011;9745;50.828;4.378;2023-03-03T15:08:51;18.27;;;9.17;;
19221;SDS011;9745;50.828;4.378;2023-03-03T15:11:20;16.23;;;9.40;;
19221;SDS011;9745;50.828;4.378;2023-03-03T15:13:51;20.30;;;9.37;;
19221;SDS011;9745;50.828;4.378;2023-03-03T15:16:18;18.90;;;9.20;;
19221;SDS011;9745;50.828;4.378;2023-03-03T15:21:28;19.43;;;8.70;;
19221;SDS011;9745;50.828;4.378;2023-03-03T15:29:15;19.20;;;9.03;;
19221;SDS011;9745;50.828;4.378;2023-03-03T15:34:29;17.67;;;8.67;;
19221;SDS011;9745;50.828;4.378;2023-03-03T15:37:21;18.73;;;8.83;;
19221;SDS011;9745;50.828;4.378;2023-03-03T15:47:48;14.30;;;8.33;;
19221;SDS011;9745;50.828;4.378;2023-03-03T16:03:27;15.40;;;8.33;;
19221;SDS011;9745;50.828;4.378;2023-03-03T16:05:56;12.63;;;7.90;;
19221;SDS011;9745;50.828;4.378;2023-03-03T16:08:30;16.23;;;7.57;;
19221;SDS011;9745;50.828;4.378;2023-03-03T16:11:08;14.07;;;7.03;;
19221;SDS011;9745;50.828;4.378;2023-03-03T16:13:56;12.20;;;7.27;;
19221;SDS011;9745;50.828;4.378;2023-03-03T16:16:32;13.30;;;7.30;;
19221;SDS011;9745;50.828;4.378;2023-03-03T16:24:28;10.20;;;7.37;;
19221;SDS011;9745;50.828;4.378;2023-03-03T16:26:59;12.33;;;6.80;;
19221;SDS011;9745;50.828;4.378;2023-03-03T16:39:58;11.60;;;7.03;;
19221;SDS011;9745;50.828;4.378;2023-03-03T16:42:29;11.93;;;6.33;;
19221;SDS011;9745;50.828;4.378;2023-03-03T16:45:14;9.20;;;5.93;;
19221;SDS011;9745;50.828;4.378;2023-03-03T16:53:17;9.93;;;6.43;;
19221;SDS011;9745;50.828;4.378;2023-03-03T16:58:18;15.50;;;7.13;;
19221;SDS011;9745;50.828;4.378;2023-03-03T17:00:59;9.83;;;6.07;;
19221;SDS011;9745;50.828;4.378;2023-03-03T17:06:15;11.97;;;6.23;;
19221;SDS011;9745;50.828;4.378;2023-03-03T17:08:47;11.40;;;6.33;;
19221;SDS011;9745;50.828;4.378;2023-03-03T17:16:59;13.63;;;6.77;;
19221;SDS011;9745;50.828;4.378;2023-03-03T17:27:11;10.23;;;5.73;;
19221;SDS011;9745;50.828;4.378;2023-03-03T17:32:51;10.47;;;6.40;;
19221;SDS011;9745;50.828;4.378;2023-03-03T17:35:13;12.70;;;6.60;;
19221;SDS011;9745;50.828;4.378;2023-03-03T17:40:16;11.20;;;6.97;;
19221;SDS011;9745;50.828;4.378;2023-03-03T17:42:49;14.77;;;6.27;;
19221;SDS011;9745;50.828;4.378;2023-03-03T17:45:20;11.43;;;6.40;;
19221;SDS011;9745;50.828;4.378;2023-03-03T17:47:52;9.13;;;5.60;;
19221;SDS011;9745;50.828;4.378;2023-03-03T17:50:46;9.73;;;6.70;;
19221;SDS011;9745;50.828;4.378;2023-03-03T18:03:27;13.23;;;6.17;;
19221;SDS011;9745;50.828;4.378;2023-03-03T18:16:01;15.10;;;7.83;;
19221;SDS011;9745;50.828;4.378;2023-03-03T18:25:57;10.80;;;6.67;;
19221;SDS011;9745;50.828;4.378;2023-03-03T18:28:42;14.73;;;7.33;;
19221;SDS011;9745;50.828;4.378;2023-03-03T18:31:15;10.63;;;6.27;;
19221;SDS011;9745;50.828;4.378;2023-03-03T18:38:52;9.17;;;5.93;;
19221;SDS011;9745;50.828;4.378;2023-03-03T18:41:21;14.60;;;5.97;;
19221;SDS011;9745;50.828;4.378;2023-03-03T18:43:49;12.27;;;6.53;;
19221;SDS011;9745;50.828;4.378;2023-03-03T18:51:45;14.43;;;6.60;;
19221;SDS011;9745;50.828;4.378;2023-03-03T18:54:04;11.60;;;6.50;;
19221;SDS011;9745;50.828;4.378;2023-03-03T19:02:11;12.13;;;6.33;;
19221;SDS011;9745;50.828;4.378;2023-03-03T19:10:00;8.47;;;5.40;;
19221;SDS011;9745;50.828;4.378;2023-03-03T19:18:03;13.17;;;6.67;;
19221;SDS011;9745;50.828;4.378;2023-03-03T19:21:03;11.30;;;5.90;;
19221;SDS011;9745;50.828;4.378;2023-03-03T19:28:37;9.73;;;6.47;;
19221;SDS011;9745;50.828;4.378;2023-03-03T19:31:09;12.93;;;6.10;;
19221;SDS011;9745;50.828;4.378;2023-03-03T19:38:54;8.60;;;4.43;;
19221;SDS011;9745;50.828;4.378;2023-03-03T19:41:27;10.63;;;4.70;;
19221;SDS011;9745;50.828;4.378;2023-03-03T19:44:05;6.53;;;4.80;;
19221;SDS011;9745;50.828;4.378;2023-03-03T19:46:49;12.63;;;6.20;;
19221;SDS011;9745;50.828;4.378;2023-03-03T19:49:20;10.90;;;6.60;;
19221;SDS011;9745;50.828;4.378;2023-03-03T19:54:42;11.73;;;5.00;;